createdAt,value
2019-02-26T00:02:17.305Z,58.82
2019-02-26T00:07:23.493Z,58.95
2019-02-26T00:12:26.278Z,59.06
2019-02-26T00:17:27.700Z,59.43
2019-02-26T00:22:29.983Z,59.92
2019-02-26T00:27:35.026Z,60.48
2019-02-26T00:32:38.362Z,60.56
2019-02-26T00:37:40.624Z,60.98
2019-02-26T00:42:42.213Z,60.69
2019-02-26T00:47:46.152Z,60.97
2019-02-26T00:52:47.223Z,61.28
2019-02-26T00:57:48.781Z,61.67
2019-02-26T01:02:50.343Z,61.76
2019-02-26T01:07:54.220Z,62.17
2019-02-26T01:12:56.483Z,62.65
2019-02-26T01:18:01.439Z,62.50
2019-02-26T01:23:03.751Z,63.23
2019-02-26T01:28:05.299Z,63.36
2019-02-26T01:33:08.057Z,63.37
2019-02-26T01:38:12.065Z,63.03
2019-02-26T01:43:14.028Z,62.64
2019-02-26T01:48:18.392Z,62.58
2019-02-26T01:53:19.809Z,62.66
2019-02-26T01:58:22.541Z,62.28
2019-02-26T02:03:25.516Z,62.32
2019-02-26T02:08:27.589Z,62.33
2019-02-26T02:13:30.581Z,62.33
2019-02-26T02:18:32.731Z,62.60
2019-02-26T02:23:34.341Z,62.37
2019-02-26T02:28:35.880Z,62.50
2019-02-26T02:33:37.647Z,61.42
2019-02-26T02:38:39.400Z,61.95
2019-02-26T02:43:40.945Z,62.54
2019-02-26T02:48:42.487Z,62.47
2019-02-26T02:53:45.241Z,62.44
2019-02-26T02:58:49.487Z,62.80
2019-02-26T03:03:53.125Z,62.53
2019-02-26T03:08:54.467Z,62.99
2019-02-26T03:13:56.096Z,63.15
2019-02-26T03:18:57.662Z,63.73
2019-02-26T03:24:02.841Z,64.24
2019-02-26T03:29:03.725Z,64.17
2019-02-26T03:34:10.571Z,64.45
2019-02-26T03:39:08.829Z,65.04
2019-02-26T03:44:10.495Z,64.51
2019-02-26T03:49:12.107Z,64.71
2019-02-26T03:54:13.659Z,65.16
2019-02-26T03:59:15.214Z,65.25
2019-02-26T04:04:16.752Z,65.45
2019-02-26T04:09:19.618Z,65.08
2019-02-26T04:14:22.914Z,65.15
2019-02-26T04:19:26.854Z,65.65
2019-02-26T04:24:29.897Z,65.73
2019-02-26T04:29:36.093Z,65.85
2019-02-26T04:34:43.942Z,65.70
2019-02-26T04:40:05.389Z,65.83
2019-02-26T04:45:26.484Z,66.39
2019-02-26T04:50:29.571Z,66.26
2019-02-26T04:55:35.346Z,66.31
2019-02-26T05:00:36.571Z,65.98
2019-02-26T05:05:38.832Z,66.00
2019-02-26T05:10:40.384Z,66.28
2019-02-26T05:15:43.469Z,66.50
2019-02-26T05:20:48.511Z,66.94
2019-02-26T05:25:48.877Z,67.09
2019-02-26T05:30:51.395Z,67.46
2019-02-26T05:35:52.971Z,67.63
2019-02-26T05:40:55.798Z,68.16
2019-02-26T05:46:00.609Z,68.11
2019-02-26T05:51:03.605Z,68.14
2019-02-26T05:56:05.603Z,68.73
2019-02-26T06:01:07.160Z,68.70
2019-02-26T06:06:08.719Z,68.53
2019-02-26T06:11:10.411Z,68.87
2019-02-26T06:16:12.028Z,69.08
2019-02-26T06:21:15.797Z,68.98
2019-02-26T06:26:17.854Z,69.24
2019-02-26T06:31:21.947Z,69.45
2019-02-26T06:36:25.880Z,69.40
2019-02-26T06:41:41.561Z,69.76
2019-02-26T06:46:43.059Z,69.97
2019-02-26T06:51:45.165Z,70.07
2019-02-26T06:56:49.099Z,70.34
2019-02-26T07:01:55.560Z,70.20
2019-02-26T07:06:57.186Z,70.54
2019-02-26T07:11:58.504Z,70.73
2019-02-26T07:17:00.122Z,71.08
2019-02-26T07:22:01.679Z,71.36
2019-02-26T07:27:04.298Z,71.54
2019-02-26T07:32:06.833Z,71.42
2019-02-26T07:37:09.340Z,72.24
2019-02-26T07:42:14.006Z,73.11
2019-02-26T07:47:15.350Z,73.51
2019-02-26T07:52:16.907Z,74.36
2019-02-26T07:57:20.589Z,74.76
2019-02-26T08:02:21.944Z,75.26
2019-02-26T08:07:24.384Z,75.29
2019-02-26T08:12:27.025Z,75.12
2019-02-26T08:17:28.655Z,75.15
2019-02-26T08:22:32.355Z,75.40
2019-02-26T08:27:35.557Z,75.37
2019-02-26T08:32:39.140Z,75.17
2019-02-26T08:37:40.971Z,75.34
2019-02-26T08:42:43.531Z,75.56
2019-02-26T08:47:45.095Z,75.76
2019-02-26T08:52:49.920Z,76.81
2019-02-26T08:57:51.988Z,77.27
2019-02-26T09:02:56.445Z,78.27
2019-02-26T09:07:57.349Z,78.21
2019-02-26T09:12:58.935Z,78.39
2019-02-26T09:18:00.548Z,78.95
2019-02-26T09:23:02.213Z,78.23
2019-02-26T09:28:03.876Z,78.97
2019-02-26T09:33:06.357Z,79.07
2019-02-26T09:38:09.038Z,78.33
2019-02-26T09:43:12.902Z,78.70
2019-02-26T09:48:16.596Z,77.67
2019-02-26T09:53:17.983Z,76.95
2019-02-26T09:58:21.048Z,75.81
2019-02-26T10:03:23.072Z,74.13
2019-02-26T10:08:25.397Z,73.26
2019-02-26T10:13:28.290Z,74.56
2019-02-26T10:18:32.804Z,74.04
2019-02-26T10:23:34.359Z,73.86
2019-02-26T10:28:39.421Z,73.79
2019-02-26T10:33:41.160Z,73.70
2019-02-26T10:38:42.859Z,72.48
2019-02-26T10:43:44.735Z,73.02
2019-02-26T10:48:47.966Z,73.17
2019-02-26T10:53:49.801Z,72.60
2019-02-26T10:58:54.735Z,72.94
2019-02-26T11:03:55.243Z,73.23
2019-02-26T11:09:01.064Z,73.26
2019-02-26T11:14:02.728Z,71.51
2019-02-26T11:19:07.526Z,72.23
2019-02-26T11:24:11.117Z,72.22
2019-02-26T11:29:12.499Z,71.73
2019-02-26T11:34:14.044Z,72.07
2019-02-26T11:39:16.538Z,71.63
2019-02-26T11:44:20.571Z,70.75
2019-02-26T11:49:21.951Z,71.55
2019-02-26T11:54:23.520Z,71.30
2019-02-26T11:59:25.071Z,70.87
2019-02-26T12:04:26.743Z,70.68
2019-02-26T12:09:32.410Z,69.12
2019-02-26T12:14:34.699Z,69.39
2019-02-26T12:19:37.186Z,66.89
2019-02-26T12:24:38.882Z,64.62
2019-02-26T12:29:42.674Z,62.79
2019-02-26T12:34:45.416Z,61.38
2019-02-26T12:39:49.931Z,61.79
2019-02-26T12:44:50.896Z,62.59
2019-02-26T12:49:52.485Z,60.54
2019-02-26T12:54:55.012Z,59.52
2019-02-26T12:59:57.476Z,60.95
2019-02-26T13:04:59.034Z,58.58
2019-02-26T13:10:03.609Z,60.91
2019-02-26T13:15:19.014Z,60.44
2019-02-26T13:20:25.518Z,60.07
2019-02-26T13:25:27.192Z,57.40
2019-02-26T13:30:28.861Z,57.87
2019-02-26T13:35:30.417Z,58.11
2019-02-26T13:40:38.230Z,58.89
2019-02-26T13:45:35.925Z,57.48
2019-02-26T13:50:39.108Z,58.34
2019-02-26T13:55:40.924Z,57.76
2019-02-26T14:00:42.576Z,57.36
2019-02-26T14:05:44.340Z,57.48
2019-02-26T14:10:46.000Z,57.39
2019-02-26T14:15:47.755Z,58.46
2019-02-26T14:20:49.448Z,57.79
2019-02-26T14:25:51.039Z,58.07
2019-02-26T14:30:52.599Z,57.24
2019-02-26T14:35:54.184Z,56.91
2019-02-26T14:40:55.752Z,58.08
2019-02-26T14:45:57.308Z,58.54
2019-02-26T14:50:59.872Z,59.37
2019-02-26T14:56:01.477Z,60.79
2019-02-26T15:01:03.995Z,60.67
2019-02-26T15:06:05.798Z,60.36
2019-02-26T15:11:07.493Z,61.19
2019-02-26T15:16:09.088Z,60.88
2019-02-26T15:21:10.763Z,61.12
2019-02-26T15:26:12.363Z,61.24
2019-02-26T15:31:14.144Z,59.27
2019-02-26T15:36:15.705Z,59.26
2019-02-26T15:41:17.384Z,59.02
2019-02-26T15:46:20.569Z,59.91
2019-02-26T15:51:23.528Z,59.89
2019-02-26T15:56:29.563Z,58.55
2019-02-26T16:01:29.967Z,57.63
2019-02-26T16:06:31.687Z,57.21
2019-02-26T16:11:34.642Z,58.51
2019-02-26T16:16:37.625Z,58.93
2019-02-26T16:21:39.598Z,58.92
2019-02-26T16:26:43.064Z,59.90
2019-02-26T16:31:45.624Z,60.30
2019-02-26T16:36:49.551Z,60.75
2019-02-26T16:41:51.135Z,60.90
2019-02-26T16:46:52.952Z,60.88
2019-02-26T16:51:56.793Z,61.62
2019-02-26T16:56:58.671Z,61.62
2019-02-26T17:02:01.912Z,62.15
2019-02-26T17:07:04.214Z,62.01
2019-02-26T17:12:06.122Z,61.96
2019-02-26T17:17:10.166Z,62.34
2019-02-26T17:22:11.868Z,62.52
2019-02-26T17:27:14.998Z,62.87
2019-02-26T17:32:17.728Z,62.68
2019-02-26T17:37:21.288Z,63.02
2019-02-26T17:42:23.731Z,62.89
2019-02-26T17:47:25.605Z,63.17
2019-02-26T17:52:29.271Z,63.58
2019-02-26T17:57:34.634Z,63.93
2019-02-26T18:02:35.560Z,64.30
2019-02-26T18:07:38.589Z,64.61
2019-02-26T18:12:42.667Z,64.83
2019-02-26T18:17:45.147Z,64.55
2019-02-26T18:22:46.883Z,64.16
2019-02-26T18:27:49.885Z,64.25
2019-02-26T18:32:57.426Z,64.66
2019-02-26T18:37:56.824Z,65.10
2019-02-26T18:42:58.524Z,65.16
2019-02-26T18:48:00.380Z,65.67
2019-02-26T18:53:05.276Z,64.99
2019-02-26T18:58:07.071Z,64.42
2019-02-26T19:03:09.519Z,63.75
2019-02-26T19:08:11.293Z,63.54
2019-02-26T19:13:12.928Z,64.08
2019-02-26T19:18:14.672Z,64.20
2019-02-26T19:23:16.560Z,64.35
2019-02-26T19:28:18.471Z,64.79
2019-02-26T19:33:21.742Z,65.20
2019-02-26T19:38:27.249Z,65.51
2019-02-26T19:43:28.832Z,65.86
2019-02-26T19:48:32.201Z,65.61
2019-02-26T19:53:35.183Z,65.70
2019-02-26T19:58:40.616Z,65.45
2019-02-26T20:03:40.915Z,65.06
2019-02-26T20:08:42.562Z,64.91
2019-02-26T20:13:44.158Z,65.11
2019-02-26T20:18:45.724Z,65.36
2019-02-26T20:23:47.394Z,65.94
2019-02-26T20:28:48.945Z,66.30
2019-02-26T20:33:50.503Z,66.76
2019-02-26T20:38:52.059Z,66.88
2019-02-26T20:43:53.621Z,67.46
2019-02-26T20:48:55.172Z,67.46
2019-02-26T20:53:56.768Z,67.84
2019-02-26T20:58:58.330Z,68.77
2019-02-26T21:03:59.925Z,69.63
2019-02-26T21:09:06.561Z,70.42
2019-02-26T21:14:07.868Z,71.45
2019-02-26T21:19:10.842Z,72.02
2019-02-26T21:24:14.467Z,72.12
2019-02-26T21:29:17.925Z,72.35
2019-02-26T21:34:21.427Z,72.60
2019-02-26T21:39:24.881Z,72.47
2019-02-26T21:44:28.331Z,73.04
2019-02-26T21:49:31.800Z,74.27
2019-02-26T21:54:35.256Z,74.41
2019-02-26T21:59:38.752Z,74.61
2019-02-26T22:04:42.199Z,74.66
2019-02-26T22:09:43.862Z,74.64
2019-02-26T22:14:45.760Z,75.08
2019-02-26T22:19:47.516Z,75.28
2019-02-26T22:24:49.158Z,74.96
2019-02-26T22:29:50.708Z,74.97
2019-02-26T22:34:53.585Z,75.38
2019-02-26T22:39:58.633Z,75.63
2019-02-26T22:45:00.229Z,75.18
2019-02-26T22:50:03.194Z,75.24
2019-02-26T22:55:08.751Z,75.50
2019-02-26T23:00:49.827Z,75.31
2019-02-26T23:05:53.381Z,75.61
2019-02-26T23:10:57.513Z,75.78
2019-02-26T23:15:59.959Z,75.99
2019-02-26T23:21:01.808Z,76.28
2019-02-26T23:26:04.139Z,76.40
2019-02-26T23:31:06.903Z,76.96
2019-02-26T23:36:08.896Z,76.67
2019-02-26T23:41:10.448Z,76.31
2019-02-26T23:46:12.303Z,76.50
2019-02-26T23:51:13.888Z,75.64
2019-02-26T23:56:16.781Z,76.06
